Time;durP1;ratioP1;P1;durP2;ratioP2;P2;SDS_P1;SDS_P2;PMS_P1;PMS_P2;Temp;Humidity;BMP_temperature;BMP_pressure;BME280_temperature;BME280_humidity;BME280_pressure;Samples;Min_cycle;Max_cycle;Signal;HPM_P1;HPM_P2
2023/02/26 00:00:19;;;;;;;0.27;0.27;;;;;;;;;;5034668;28;20292;-68
2023/02/26 00:02:47;;;;;;;0.20;0.20;;;;;;;;;;5059053;28;20388;-68
2023/02/26 00:05:14;;;;;;;0.30;0.30;;;;;;;;;;5034995;28;20686;-70
2023/02/26 00:07:40;;;;;;;0.30;0.30;;;;;;;;;;5058848;28;20206;-70
2023/02/26 00:10:08;;;;;;;0.20;0.20;;;;;;;;;;5044158;28;20233;-70
2023/02/26 00:12:34;;;;;;;0.20;0.20;;;;;;;;;;5032793;28;20234;-71
2023/02/26 00:15:03;;;;;;;0.20;0.20;;;;;;;;;;5044318;28;20205;-71
2023/02/26 00:17:35;;;;;;;0.20;0.20;;;;;;;;;;5049375;28;20309;-71
2023/02/26 00:20:02;;;;;;;0.20;0.20;;;;;;;;;;5044043;28;20209;-71
2023/02/26 00:22:29;;;;;;;0.20;0.20;;;;;;;;;;5049191;28;20324;-70
2023/02/26 00:24:55;;;;;;;0.30;0.30;;;;;;;;;;5044118;28;20205;-70
2023/02/26 00:27:22;;;;;;;0.30;0.30;;;;;;;;;;5049120;28;20312;-70
2023/02/26 00:29:48;;;;;;;0.20;0.20;;;;;;;;;;5044059;28;20566;-70
2023/02/26 00:32:17;;;;;;;0.20;0.20;;;;;;;;;;5048977;28;20254;-70
2023/02/26 00:34:44;;;;;;;0.20;0.20;;;;;;;;;;5044035;28;20213;-70
2023/02/26 00:37:17;;;;;;;0.20;0.20;;;;;;;;;;5048968;28;20253;-69
2023/02/26 00:39:47;;;;;;;0.20;0.20;;;;;;;;;;5043942;28;20493;-69
2023/02/26 00:42:13;;;;;;;0.30;0.30;;;;;;;;;;5048916;28;20455;-69
2023/02/26 00:44:40;;;;;;;0.20;0.20;;;;;;;;;;5043681;28;20273;-69
2023/02/26 00:47:09;;;;;;;0.20;0.20;;;;;;;;;;5048740;28;20262;-69
2023/02/26 00:49:43;;;;;;;0.23;0.23;;;;;;;;;;5043586;28;20263;-69
2023/02/26 00:52:13;;;;;;;0.30;0.30;;;;;;;;;;5048862;28;20309;-69
2023/02/26 00:54:39;;;;;;;0.20;0.20;;;;;;;;;;5043563;28;20277;-69
2023/02/26 00:57:05;;;;;;;0.20;0.20;;;;;;;;;;5048498;28;20241;-70
2023/02/26 00:59:32;;;;;;;0.20;0.20;;;;;;;;;;5043710;28;20272;-70
2023/02/26 01:01:58;;;;;;;0.20;0.20;;;;;;;;;;5047419;28;20595;-69
2023/02/26 01:04:25;;;;;;;0.30;0.30;;;;;;;;;;5048809;28;20600;-69
2023/02/26 01:06:54;;;;;;;0.20;0.20;;;;;;;;;;5050687;28;20246;-69
2023/02/26 01:09:24;;;;;;;0.23;0.23;;;;;;;;;;5049376;28;20231;-69
2023/02/26 01:11:51;;;;;;;0.20;0.20;;;;;;;;;;5050708;28;20261;-69
2023/02/26 01:14:17;;;;;;;0.20;0.20;;;;;;;;;;5049336;28;20273;-69
2023/02/26 01:16:47;;;;;;;0.20;0.20;;;;;;;;;;5049696;28;20532;-69
2023/02/26 01:19:18;;;;;;;0.20;0.20;;;;;;;;;;5050073;28;20208;-69
2023/02/26 01:21:47;;;;;;;0.20;0.20;;;;;;;;;;5049504;28;20298;-70
2023/02/26 01:24:15;;;;;;;0.23;0.23;;;;;;;;;;5049787;28;20242;-69
2023/02/26 01:26:42;;;;;;;0.30;0.30;;;;;;;;;;5049170;28;20496;-70
2023/02/26 01:29:08;;;;;;;0.40;0.40;;;;;;;;;;5050424;28;20231;-70
2023/02/26 01:31:39;;;;;;;0.20;0.20;;;;;;;;;;5048299;28;20257;-69
2023/02/26 01:34:09;;;;;;;0.20;0.20;;;;;;;;;;5050445;28;20309;-69
2023/02/26 01:36:39;;;;;;;0.20;0.20;;;;;;;;;;5048361;28;20610;-69
2023/02/26 01:39:07;;;;;;;0.27;0.27;;;;;;;;;;5050520;28;20424;-70
2023/02/26 01:41:36;;;;;;;0.30;0.30;;;;;;;;;;5047758;28;20316;-69
2023/02/26 01:44:05;;;;;;;0.30;0.30;;;;;;;;;;5050635;28;20283;-69
2023/02/26 01:46:34;;;;;;;0.30;0.30;;;;;;;;;;5047489;28;20241;-69
2023/02/26 01:49:01;;;;;;;0.30;0.30;;;;;;;;;;5050611;28;20255;-69
2023/02/26 01:51:41;;;;;;;0.20;0.20;;;;;;;;;;5047030;28;20268;-69
2023/02/26 01:54:07;;;;;;;0.20;0.20;;;;;;;;;;5049822;28;20233;-69
2023/02/26 01:56:35;;;;;;;0.30;0.30;;;;;;;;;;5047579;28;20253;-69
2023/02/26 01:59:04;;;;;;;0.30;0.30;;;;;;;;;;5050590;28;20233;-69
2023/02/26 02:01:31;;;;;;;0.30;0.30;;;;;;;;;;5047263;28;20254;-69
2023/02/26 02:03:57;;;;;;;0.20;0.20;;;;;;;;;;5051146;28;20470;-68
2023/02/26 02:06:25;;;;;;;0.23;0.23;;;;;;;;;;5046356;28;20485;-69
2023/02/26 02:08:52;;;;;;;0.30;0.30;;;;;;;;;;5051765;28;20478;-69
2023/02/26 02:11:19;;;;;;;0.30;0.30;;;;;;;;;;5045546;28;20428;-70
2023/02/26 02:13:54;;;;;;;0.30;0.30;;;;;;;;;;5051333;28;20333;-70
2023/02/26 02:16:24;;;;;;;0.30;0.30;;;;;;;;;;5045635;28;20310;-69
2023/02/26 02:18:53;;;;;;;0.27;0.27;;;;;;;;;;5051539;28;20201;-69
2023/02/26 02:21:34;;;;;;;0.20;0.20;;;;;;;;;;5045482;28;20240;-71
2023/02/26 02:24:04;;;;;;;0.20;0.20;;;;;;;;;;5050138;28;20247;-72
2023/02/26 02:26:38;;;;;;;0.30;0.30;;;;;;;;;;5046733;28;20443;-71
2023/02/26 02:29:27;;;;;;;0.20;0.20;;;;;;;;;;5049592;28;20216;-68
2023/02/26 02:31:58;;;;;;;0.20;0.20;;;;;;;;;;5049355;28;20311;-68
2023/02/26 02:34:27;;;;;;;0.30;0.30;;;;;;;;;;5047446;28;20237;-71
2023/02/26 02:36:56;;;;;;;0.30;0.30;;;;;;;;;;5049379;28;20263;-70
2023/02/26 02:39:23;;;;;;;0.20;0.20;;;;;;;;;;5047449;28;20270;-70
2023/02/26 02:41:53;;;;;;;0.20;0.20;;;;;;;;;;5048826;28;20326;-70
2023/02/26 02:44:21;;;;;;;0.20;0.20;;;;;;;;;;5047440;28;20249;-70
2023/02/26 02:46:49;;;;;;;0.30;0.30;;;;;;;;;;5048575;28;20310;-70
2023/02/26 02:49:20;;;;;;;0.30;0.30;;;;;;;;;;5047938;28;20231;-70
2023/02/26 02:51:47;;;;;;;0.30;0.30;;;;;;;;;;5048226;28;20299;-70
2023/02/26 02:54:15;;;;;;;0.20;0.20;;;;;;;;;;5047945;28;20272;-70
2023/02/26 02:56:46;;;;;;;0.30;0.30;;;;;;;;;;5047447;28;20316;-70
2023/02/26 02:59:16;;;;;;;0.30;0.30;;;;;;;;;;5048353;28;20572;-69
2023/02/26 03:01:43;;;;;;;0.20;0.20;;;;;;;;;;5047444;28;20565;-70
2023/02/26 03:04:11;;;;;;;0.20;0.20;;;;;;;;;;5048485;28;20224;-71
2023/02/26 03:06:39;;;;;;;0.30;0.30;;;;;;;;;;5046824;28;20307;-70
2023/02/26 03:09:06;;;;;;;0.20;0.20;;;;;;;;;;5049044;28;20417;-68
2023/02/26 03:11:32;;;;;;;0.20;0.20;;;;;;;;;;5045989;28;20263;-70
2023/02/26 03:13:59;;;;;;;0.20;0.20;;;;;;;;;;5049523;28;20243;-70
2023/02/26 03:16:33;;;;;;;0.23;0.23;;;;;;;;;;5045177;28;20259;-69
2023/02/26 03:19:01;;;;;;;0.30;0.30;;;;;;;;;;5049588;28;20265;-70
2023/02/26 03:21:31;;;;;;;0.30;0.30;;;;;;;;;;5045313;28;20565;-70
2023/02/26 03:24:02;;;;;;;0.30;0.30;;;;;;;;;;5049640;28;20477;-70
2023/02/26 03:26:31;;;;;;;0.30;0.30;;;;;;;;;;5045165;28;20241;-69
2023/02/26 03:29:01;;;;;;;0.20;0.20;;;;;;;;;;5049230;28;20212;-70
2023/02/26 03:31:30;;;;;;;0.27;0.27;;;;;;;;;;5045037;28;20263;-70
2023/02/26 03:33:58;;;;;;;0.20;0.20;;;;;;;;;;5049382;28;20539;-70
2023/02/26 03:36:26;;;;;;;0.30;0.30;;;;;;;;;;5044598;28;20240;-70
2023/02/26 03:38:55;;;;;;;0.30;0.30;;;;;;;;;;5049651;28;20244;-69
2023/02/26 03:41:25;;;;;;;0.20;0.20;;;;;;;;;;5044242;28;20659;-69
2023/02/26 03:43:55;;;;;;;0.20;0.20;;;;;;;;;;5049838;28;20237;-69
2023/02/26 03:46:27;;;;;;;0.30;0.30;;;;;;;;;;5043892;28;20244;-69
2023/02/26 03:48:55;;;;;;;0.30;0.30;;;;;;;;;;5049247;28;20267;-69
2023/02/26 03:51:23;;;;;;;0.30;0.30;;;;;;;;;;5043868;28;20307;-70
2023/02/26 03:53:58;;;;;;;0.20;0.20;;;;;;;;;;5050190;28;20462;-70
2023/02/26 03:56:29;;;;;;;0.30;0.30;;;;;;;;;;5044399;28;20260;-70
2023/02/26 03:58:55;;;;;;;0.30;0.30;;;;;;;;;;5049074;28;20201;-70
2023/02/26 04:01:23;;;;;;;0.30;0.30;;;;;;;;;;5043488;28;20311;-70
2023/02/26 04:03:52;;;;;;;0.30;0.30;;;;;;;;;;5049767;28;20342;-70
2023/02/26 04:06:19;;;;;;;0.30;0.30;;;;;;;;;;5043329;28;20243;-69
2023/02/26 04:08:45;;;;;;;0.30;0.30;;;;;;;;;;5050106;28;20238;-69
2023/02/26 04:11:16;;;;;;;0.30;0.30;;;;;;;;;;5042118;28;20360;-69
2023/02/26 04:13:44;;;;;;;0.30;0.30;;;;;;;;;;5050874;28;20264;-70
2023/02/26 04:16:10;;;;;;;0.20;0.20;;;;;;;;;;5042146;28;20253;-69
2023/02/26 04:18:36;;;;;;;0.30;0.30;;;;;;;;;;5051434;28;20527;-70
2023/02/26 04:21:03;;;;;;;0.30;0.30;;;;;;;;;;5041139;28;20248;-70
2023/02/26 04:23:30;;;;;;;0.23;0.23;;;;;;;;;;5052307;28;20430;-69
2023/02/26 04:25:56;;;;;;;0.20;0.20;;;;;;;;;;5040199;28;20263;-70
2023/02/26 04:28:22;;;;;;;0.27;0.27;;;;;;;;;;5053164;28;20560;-69
2023/02/26 04:30:50;;;;;;;0.20;0.20;;;;;;;;;;5038954;28;20250;-69
2023/02/26 04:33:16;;;;;;;0.20;0.20;;;;;;;;;;5053815;28;20537;-70
2023/02/26 04:35:43;;;;;;;0.20;0.20;;;;;;;;;;5038033;28;20446;-69
2023/02/26 04:38:09;;;;;;;0.20;0.20;;;;;;;;;;5054231;28;20247;-69
2023/02/26 04:40:35;;;;;;;0.30;0.30;;;;;;;;;;5037432;28;20262;-69
2023/02/26 04:43:02;;;;;;;0.30;0.30;;;;;;;;;;5055583;28;20226;-69
2023/02/26 04:45:28;;;;;;;0.20;0.20;;;;;;;;;;5036531;28;20240;-69
2023/02/26 04:47:56;;;;;;;0.20;0.20;;;;;;;;;;5056533;28;20526;-69
2023/02/26 04:50:22;;;;;;;0.23;0.23;;;;;;;;;;5035434;28;20295;-69
2023/02/26 04:52:49;;;;;;;0.20;0.20;;;;;;;;;;5056932;28;20222;-69
2023/02/26 04:55:15;;;;;;;0.30;0.30;;;;;;;;;;5034424;28;20285;-69
2023/02/26 04:57:41;;;;;;;0.30;0.30;;;;;;;;;;5058053;28;20271;-69
2023/02/26 05:00:08;;;;;;;0.27;0.27;;;;;;;;;;5038388;28;20202;-69
2023/02/26 05:02:35;;;;;;;0.30;0.30;;;;;;;;;;5058522;28;20217;-69
2023/02/26 05:05:03;;;;;;;0.20;0.20;;;;;;;;;;5043528;28;20579;-69
2023/02/26 05:07:29;;;;;;;0.20;0.20;;;;;;;;;;5048581;28;20256;-70
2023/02/26 05:09:56;;;;;;;0.20;0.20;;;;;;;;;;5043437;28;20265;-69
2023/02/26 05:12:22;;;;;;;0.20;0.20;;;;;;;;;;5048636;28;20264;-69
2023/02/26 05:14:49;;;;;;;0.20;0.20;;;;;;;;;;5043632;28;20443;-69
2023/02/26 05:17:15;;;;;;;0.20;0.20;;;;;;;;;;5048606;28;20241;-69
2023/02/26 05:19:41;;;;;;;0.20;0.20;;;;;;;;;;5043553;28;20202;-69
2023/02/26 05:22:09;;;;;;;0.30;0.30;;;;;;;;;;5048626;28;20241;-70
2023/02/26 05:24:35;;;;;;;0.20;0.20;;;;;;;;;;5043134;28;20210;-69
2023/02/26 05:27:02;;;;;;;0.30;0.30;;;;;;;;;;5047684;28;20269;-69
2023/02/26 05:29:28;;;;;;;0.20;0.20;;;;;;;;;;5044087;28;20211;-69
2023/02/26 05:31:54;;;;;;;0.30;0.30;;;;;;;;;;5046583;28;20258;-69
2023/02/26 05:34:21;;;;;;;0.20;0.20;;;;;;;;;;5044629;28;20285;-69
2023/02/26 05:36:48;;;;;;;0.30;0.30;;;;;;;;;;5045767;28;20242;-69
2023/02/26 05:39:15;;;;;;;0.30;0.30;;;;;;;;;;5045438;28;20205;-69
2023/02/26 05:41:42;;;;;;;0.27;0.27;;;;;;;;;;5044935;28;20302;-70
2023/02/26 05:44:08;;;;;;;0.27;0.27;;;;;;;;;;5046214;28;20280;-69
2023/02/26 05:46:34;;;;;;;0.30;0.30;;;;;;;;;;5044216;28;20463;-69
2023/02/26 05:49:01;;;;;;;0.27;0.27;;;;;;;;;;5049083;28;20214;-69
2023/02/26 05:51:28;;;;;;;0.20;0.20;;;;;;;;;;5046671;28;20308;-69
2023/02/26 05:53:54;;;;;;;0.23;0.23;;;;;;;;;;5051597;28;20242;-69
2023/02/26 05:56:22;;;;;;;0.23;0.23;;;;;;;;;;5046011;28;20304;-69
2023/02/26 05:58:48;;;;;;;0.20;0.20;;;;;;;;;;5052415;28;20212;-69
2023/02/26 06:01:14;;;;;;;0.27;0.27;;;;;;;;;;5044779;28;20260;-69
2023/02/26 06:03:43;;;;;;;0.20;0.20;;;;;;;;;;5053539;28;20257;-69
2023/02/26 06:06:09;;;;;;;0.27;0.27;;;;;;;;;;5044450;28;20249;-69
2023/02/26 06:08:35;;;;;;;0.30;0.30;;;;;;;;;;5054010;28;20280;-69
2023/02/26 06:11:02;;;;;;;0.20;0.20;;;;;;;;;;5043305;28;20262;-69
2023/02/26 06:13:30;;;;;;;0.20;0.20;;;;;;;;;;5054498;28;20205;-69
2023/02/26 06:15:56;;;;;;;0.20;0.20;;;;;;;;;;5042687;28;20242;-69
2023/02/26 06:18:23;;;;;;;0.20;0.20;;;;;;;;;;5055203;28;20212;-69
2023/02/26 06:20:49;;;;;;;0.20;0.20;;;;;;;;;;5041711;28;20308;-68
2023/02/26 06:23:15;;;;;;;0.20;0.20;;;;;;;;;;5056060;28;20204;-69
2023/02/26 06:25:42;;;;;;;0.30;0.30;;;;;;;;;;5040663;28;20260;-69
2023/02/26 06:28:08;;;;;;;0.20;0.20;;;;;;;;;;5057133;28;20213;-69
2023/02/26 06:30:36;;;;;;;0.30;0.30;;;;;;;;;;5039503;28;20300;-69
2023/02/26 06:33:03;;;;;;;0.20;0.20;;;;;;;;;;5057679;28;20294;-68
2023/02/26 06:35:29;;;;;;;0.30;0.30;;;;;;;;;;5038766;28;20324;-69
2023/02/26 06:37:56;;;;;;;0.20;0.20;;;;;;;;;;5058571;28;20507;-69
2023/02/26 06:40:22;;;;;;;0.20;0.20;;;;;;;;;;5037864;28;20236;-69
2023/02/26 06:42:49;;;;;;;0.20;0.20;;;;;;;;;;5059035;28;20785;-69
2023/02/26 06:45:15;;;;;;;0.20;0.20;;;;;;;;;;5036909;28;20210;-69
2023/02/26 06:47:43;;;;;;;0.30;0.30;;;;;;;;;;5059940;28;20226;-69
2023/02/26 06:50:10;;;;;;;0.27;0.27;;;;;;;;;;5035969;28;20462;-69
2023/02/26 06:52:36;;;;;;;0.20;0.20;;;;;;;;;;5060884;28;20202;-69
2023/02/26 06:55:03;;;;;;;0.20;0.20;;;;;;;;;;5045746;28;20225;-68
2023/02/26 06:57:29;;;;;;;0.20;0.20;;;;;;;;;;5050874;28;20313;-69
2023/02/26 06:59:55;;;;;;;0.20;0.20;;;;;;;;;;5045111;28;20206;-69
2023/02/26 07:02:22;;;;;;;0.20;0.20;;;;;;;;;;5050713;28;20245;-68
2023/02/26 07:04:50;;;;;;;0.20;0.20;;;;;;;;;;5045548;28;20260;-69
2023/02/26 07:07:17;;;;;;;0.20;0.20;;;;;;;;;;5050561;28;20252;-68
2023/02/26 07:09:43;;;;;;;0.30;0.30;;;;;;;;;;5045551;28;20394;-69
2023/02/26 07:12:10;;;;;;;0.33;0.33;;;;;;;;;;5050372;28;20241;-68
2023/02/26 07:14:36;;;;;;;0.30;0.30;;;;;;;;;;5045172;28;20206;-69
2023/02/26 07:17:03;;;;;;;0.27;0.27;;;;;;;;;;5049761;28;20275;-68
2023/02/26 07:19:30;;;;;;;0.20;0.20;;;;;;;;;;5045874;28;20274;-69
2023/02/26 07:21:57;;;;;;;0.30;0.30;;;;;;;;;;5048949;28;20242;-70
2023/02/26 07:24:24;;;;;;;0.20;0.20;;;;;;;;;;5046262;28;20268;-71
2023/02/26 07:26:51;;;;;;;0.20;0.20;;;;;;;;;;5048079;28;20242;-69
2023/02/26 07:29:17;;;;;;;0.30;0.30;;;;;;;;;;5046908;28;20290;-69
2023/02/26 07:31:43;;;;;;;0.20;0.20;;;;;;;;;;5046998;28;20301;-69
2023/02/26 07:34:10;;;;;;;0.20;0.20;;;;;;;;;;5047650;28;20286;-70
2023/02/26 07:36:36;;;;;;;0.30;0.30;;;;;;;;;;5046105;28;20261;-69
2023/02/26 07:39:04;;;;;;;0.30;0.30;;;;;;;;;;5048807;28;20452;-69
2023/02/26 07:41:30;;;;;;;0.20;0.20;;;;;;;;;;5045136;28;20314;-66
2023/02/26 07:43:56;;;;;;;0.20;0.20;;;;;;;;;;5049185;28;20235;-67
2023/02/26 07:46:23;;;;;;;0.20;0.20;;;;;;;;;;5044150;28;20258;-67
2023/02/26 07:48:49;;;;;;;0.20;0.20;;;;;;;;;;5050014;28;20239;-66
2023/02/26 07:51:16;;;;;;;0.20;0.20;;;;;;;;;;5043255;28;20312;-66
2023/02/26 07:53:42;;;;;;;0.20;0.20;;;;;;;;;;5051161;28;20564;-66
2023/02/26 07:56:10;;;;;;;0.20;0.20;;;;;;;;;;5042318;28;20608;-66
2023/02/26 07:58:36;;;;;;;0.20;0.20;;;;;;;;;;5051921;28;20210;-66
2023/02/26 08:01:02;;;;;;;0.20;0.20;;;;;;;;;;5041370;28;20234;-65
2023/02/26 08:03:31;;;;;;;0.20;0.20;;;;;;;;;;5052629;28;20565;-65
2023/02/26 08:05:59;;;;;;;0.20;0.20;;;;;;;;;;5040289;28;20292;-66
2023/02/26 08:08:25;;;;;;;0.20;0.20;;;;;;;;;;5052877;28;20210;-66
2023/02/26 08:10:51;;;;;;;0.20;0.20;;;;;;;;;;5039830;28;20253;-66
2023/02/26 08:13:20;;;;;;;0.20;0.20;;;;;;;;;;5052741;28;20278;-66
2023/02/26 08:15:47;;;;;;;0.20;0.20;;;;;;;;;;5039127;28;20242;-66
2023/02/26 08:18:13;;;;;;;0.20;0.20;;;;;;;;;;5054141;28;20207;-66
2023/02/26 08:20:40;;;;;;;0.20;0.20;;;;;;;;;;5037866;28;20266;-66
2023/02/26 08:23:06;;;;;;;0.20;0.20;;;;;;;;;;5055045;28;20238;-66
2023/02/26 08:25:32;;;;;;;0.20;0.20;;;;;;;;;;5037237;28;20253;-68
2023/02/26 08:28:00;;;;;;;0.20;0.20;;;;;;;;;;5055929;28;20225;-67
2023/02/26 08:30:27;;;;;;;0.20;0.20;;;;;;;;;;5035700;28;20206;-67
2023/02/26 08:32:54;;;;;;;0.20;0.20;;;;;;;;;;5056858;28;20540;-67
2023/02/26 08:35:20;;;;;;;0.20;0.20;;;;;;;;;;5035511;28;20242;-68
2023/02/26 08:37:47;;;;;;;0.20;0.20;;;;;;;;;;5057275;28;20195;-65
2023/02/26 08:40:13;;;;;;;0.20;0.20;;;;;;;;;;5034443;28;20278;-66
2023/02/26 08:42:40;;;;;;;0.20;0.20;;;;;;;;;;5058519;28;20192;-67
2023/02/26 08:45:07;;;;;;;0.20;0.20;;;;;;;;;;5043504;28;20215;-67
2023/02/26 08:47:34;;;;;;;0.20;0.20;;;;;;;;;;5032210;28;20211;-67
2023/02/26 08:50:02;;;;;;;0.20;0.20;;;;;;;;;;5043867;28;20208;-68
2023/02/26 08:52:28;;;;;;;0.20;0.20;;;;;;;;;;5048841;28;20597;-67
2023/02/26 08:54:55;;;;;;;0.20;0.20;;;;;;;;;;5043360;28;20237;-67
2023/02/26 08:57:21;;;;;;;0.20;0.20;;;;;;;;;;5048841;28;20329;-66
2023/02/26 08:59:47;;;;;;;0.20;0.20;;;;;;;;;;5043549;28;20239;-67
2023/02/26 09:02:14;;;;;;;0.20;0.20;;;;;;;;;;5048805;28;20562;-65
2023/02/26 09:04:42;;;;;;;0.20;0.20;;;;;;;;;;5043455;28;20227;-67
2023/02/26 09:07:08;;;;;;;0.20;0.20;;;;;;;;;;5048835;28;20597;-68
2023/02/26 09:09:34;;;;;;;0.20;0.20;;;;;;;;;;5043658;28;20239;-65
2023/02/26 09:12:01;;;;;;;0.20;0.20;;;;;;;;;;5047718;28;20489;-65
2023/02/26 09:14:27;;;;;;;0.20;0.20;;;;;;;;;;5044265;28;20329;-65
2023/02/26 09:16:54;;;;;;;0.20;0.20;;;;;;;;;;5046699;28;20247;-66
2023/02/26 09:19:20;;;;;;;0.20;0.20;;;;;;;;;;5044961;28;20245;-65
2023/02/26 09:21:48;;;;;;;0.20;0.20;;;;;;;;;;5046037;28;20246;-67
2023/02/26 09:24:14;;;;;;;0.20;0.20;;;;;;;;;;5048330;28;20464;-66
2023/02/26 09:26:41;;;;;;;0.20;0.20;;;;;;;;;;5049099;28;20250;-66
2023/02/26 09:29:07;;;;;;;0.20;0.20;;;;;;;;;;5050677;28;20240;-68
2023/02/26 09:31:33;;;;;;;0.20;0.20;;;;;;;;;;5048099;28;20298;-67
2023/02/26 09:34:00;;;;;;;0.20;0.20;;;;;;;;;;5051371;28;20418;-67
2023/02/26 09:36:26;;;;;;;0.20;0.20;;;;;;;;;;5047007;28;20298;-67
2023/02/26 09:38:54;;;;;;;0.20;0.20;;;;;;;;;;5052369;28;20208;-66
2023/02/26 09:41:24;;;;;;;0.20;0.20;;;;;;;;;;5046134;28;20258;-67
2023/02/26 09:44:01;;;;;;;0.20;0.20;;;;;;;;;;5052329;28;20229;-67
2023/02/26 09:46:33;;;;;;;0.20;0.20;;;;;;;;;;5046981;28;20590;-66
2023/02/26 09:49:04;;;;;;;0.20;0.20;;;;;;;;;;5050985;28;20246;-67
2023/02/26 09:51:31;;;;;;;0.20;0.20;;;;;;;;;;5047150;28;20231;-66
2023/02/26 09:53:59;;;;;;;0.20;0.20;;;;;;;;;;5051461;28;20461;-67
2023/02/26 09:56:29;;;;;;;0.20;0.20;;;;;;;;;;5046505;28;20240;-67
2023/02/26 09:58:57;;;;;;;0.20;0.20;;;;;;;;;;5051318;28;20205;-67
2023/02/26 10:01:26;;;;;;;0.20;0.20;;;;;;;;;;5044983;28;20235;-66
2023/02/26 10:03:59;;;;;;;0.20;0.20;;;;;;;;;;5052980;28;20571;-67
2023/02/26 10:06:26;;;;;;;0.13;0.13;;;;;;;;;;5046118;28;20255;-66
2023/02/26 10:09:05;;;;;;;0.20;0.20;;;;;;;;;;5051904;28;20554;-67
2023/02/26 10:11:35;;;;;;;0.30;0.30;;;;;;;;;;5046985;28;20481;-66
2023/02/26 10:14:03;;;;;;;0.10;0.10;;;;;;;;;;5050767;28;20260;-68
2023/02/26 10:16:33;;;;;;;0.20;0.20;;;;;;;;;;5046694;28;20319;-65
2023/02/26 10:19:01;;;;;;;0.10;0.10;;;;;;;;;;5050521;28;20205;-62
2023/02/26 10:21:30;;;;;;;0.10;0.10;;;;;;;;;;5046412;28;20322;-67
2023/02/26 10:23:59;;;;;;;0.10;0.10;;;;;;;;;;5051098;28;20211;-68
2023/02/26 10:26:28;;;;;;;0.13;0.13;;;;;;;;;;5045817;28;20256;-69
2023/02/26 10:28:56;;;;;;;0.10;0.10;;;;;;;;;;5051272;28;20454;-67
2023/02/26 10:31:26;;;;;;;0.10;0.10;;;;;;;;;;5045383;28;20298;-69
2023/02/26 10:34:06;;;;;;;0.13;0.13;;;;;;;;;;5050953;28;20215;-68
2023/02/26 10:36:35;;;;;;;0.10;0.10;;;;;;;;;;5045546;28;20239;-68
2023/02/26 10:39:03;;;;;;;0.10;0.10;;;;;;;;;;5050216;28;20207;-67
2023/02/26 10:41:34;;;;;;;0.30;0.30;;;;;;;;;;5046213;28;20273;-67
2023/02/26 10:44:09;;;;;;;0.10;0.10;;;;;;;;;;5050302;28;20263;-68
2023/02/26 10:46:42;;;;;;;0.10;0.10;;;;;;;;;;5047049;28;20243;-66
2023/02/26 10:49:24;;;;;;;0.10;0.10;;;;;;;;;;5048669;28;20264;-66
2023/02/26 10:51:51;;;;;;;0.10;0.10;;;;;;;;;;5048737;28;20295;-67
2023/02/26 10:54:29;;;;;;;0.10;0.10;;;;;;;;;;5047672;28;20206;-67
2023/02/26 10:56:57;;;;;;;0.10;0.10;;;;;;;;;;5049390;28;20250;-67
2023/02/26 10:59:24;;;;;;;0.10;0.10;;;;;;;;;;5046839;28;20543;-67
2023/02/26 11:01:50;;;;;;;0.10;0.10;;;;;;;;;;5048640;28;20601;-67
2023/02/26 11:04:22;;;;;;;0.10;0.10;;;;;;;;;;5047493;28;20292;-67
2023/02/26 11:06:49;;;;;;;0.10;0.10;;;;;;;;;;5048063;28;20268;-68
2023/02/26 11:09:19;;;;;;;0.10;0.10;;;;;;;;;;5047650;28;20443;-68
2023/02/26 11:11:47;;;;;;;0.00;0.00;;;;;;;;;;5047720;28;20337;-68
2023/02/26 11:14:15;;;;;;;0.00;0.00;;;;;;;;;;5047518;28;20283;-68
2023/02/26 11:16:43;;;;;;;0.00;0.00;;;;;;;;;;5047265;28;20317;-68
2023/02/26 11:19:09;;;;;;;0.00;0.00;;;;;;;;;;5048013;28;20236;-69
2023/02/26 11:21:37;;;;;;;0.00;0.00;;;;;;;;;;5046239;28;20307;-69
2023/02/26 11:24:05;;;;;;;0.00;0.00;;;;;;;;;;5048996;28;20204;-69
2023/02/26 11:26:38;;;;;;;0.00;0.00;;;;;;;;;;5045121;28;20243;-69
2023/02/26 11:29:05;;;;;;;0.00;0.00;;;;;;;;;;5048918;28;20189;-69
2023/02/26 11:31:33;;;;;;;0.10;0.10;;;;;;;;;;5045678;28;20306;-68
2023/02/26 11:34:01;;;;;;;0.00;0.00;;;;;;;;;;5049181;28;20455;-68
2023/02/26 11:36:28;;;;;;;0.10;0.10;;;;;;;;;;5045082;28;20246;-68
2023/02/26 11:38:56;;;;;;;0.00;0.00;;;;;;;;;;5049810;28;20240;-69
2023/02/26 11:41:23;;;;;;;0.10;0.10;;;;;;;;;;5044313;28;20255;-68
2023/02/26 11:43:55;;;;;;;0.10;0.10;;;;;;;;;;5050312;28;20510;-68
2023/02/26 11:46:23;;;;;;;0.00;0.00;;;;;;;;;;5044164;28;20258;-68
2023/02/26 11:48:53;;;;;;;0.10;0.10;;;;;;;;;;5050231;28;20506;-68
2023/02/26 11:51:22;;;;;;;0.10;0.10;;;;;;;;;;5043711;28;20262;-68
2023/02/26 11:53:50;;;;;;;0.10;0.10;;;;;;;;;;5049959;28;20201;-68
2023/02/26 11:56:20;;;;;;;0.10;0.10;;;;;;;;;;5043327;28;20239;-68
2023/02/26 11:58:47;;;;;;;0.10;0.10;;;;;;;;;;5049946;28;20224;-68
2023/02/26 12:01:15;;;;;;;0.10;0.10;;;;;;;;;;5042430;28;20444;-67
2023/02/26 12:03:44;;;;;;;0.10;0.10;;;;;;;;;;5051537;28;20224;-68
2023/02/26 12:06:16;;;;;;;0.10;0.10;;;;;;;;;;5042612;28;20271;-68
2023/02/26 12:08:44;;;;;;;0.10;0.10;;;;;;;;;;5050733;28;20386;-67
2023/02/26 12:11:19;;;;;;;0.10;0.10;;;;;;;;;;5042299;28;20429;-68
2023/02/26 12:13:54;;;;;;;0.10;0.10;;;;;;;;;;5050419;28;20528;-68
2023/02/26 12:16:23;;;;;;;0.10;0.10;;;;;;;;;;5043409;28;20309;-67
2023/02/26 12:18:55;;;;;;;0.10;0.10;;;;;;;;;;5049674;28;20275;-68
2023/02/26 12:21:30;;;;;;;0.10;0.10;;;;;;;;;;5043387;28;20256;-68
2023/02/26 12:24:07;;;;;;;0.10;0.10;;;;;;;;;;5048872;28;20227;-66
2023/02/26 12:26:35;;;;;;;0.10;0.10;;;;;;;;;;5044892;28;20320;-68
2023/02/26 12:29:11;;;;;;;0.10;0.10;;;;;;;;;;5047828;28;20278;-69
2023/02/26 12:31:50;;;;;;;0.10;0.10;;;;;;;;;;5045237;28;20243;-69
2023/02/26 12:34:26;;;;;;;0.10;0.10;;;;;;;;;;5045976;28;20213;-67
2023/02/26 12:37:02;;;;;;;0.10;0.10;;;;;;;;;;5047040;28;20302;-67
2023/02/26 12:39:36;;;;;;;0.10;0.10;;;;;;;;;;5044627;28;20236;-68
2023/02/26 12:42:10;;;;;;;0.10;0.10;;;;;;;;;;5048339;28;20249;-69
2023/02/26 12:44:50;;;;;;;0.10;0.10;;;;;;;;;;5043754;28;20215;-68
2023/02/26 12:47:26;;;;;;;0.10;0.10;;;;;;;;;;5048938;28;20237;-69
2023/02/26 12:50:06;;;;;;;0.10;0.10;;;;;;;;;;5043908;28;20349;-68
2023/02/26 12:52:40;;;;;;;0.10;0.10;;;;;;;;;;5032285;28;20267;-68
2023/02/26 12:55:14;;;;;;;0.10;0.10;;;;;;;;;;5039954;28;20210;-70
2023/02/26 12:57:46;;;;;;;0.10;0.10;;;;;;;;;;5057919;28;20244;-68
2023/02/26 13:00:28;;;;;;;0.10;0.10;;;;;;;;;;5034119;28;20239;-68
2023/02/26 13:03:12;;;;;;;0.10;0.10;;;;;;;;;;5056442;28;20191;-67
2023/02/26 13:05:47;;;;;;;0.10;0.10;;;;;;;;;;5037632;28;20454;-67
2023/02/26 13:08:20;;;;;;;0.17;0.17;;;;;;;;;;5053930;28;20263;-68
2023/02/26 13:10:54;;;;;;;0.10;0.10;;;;;;;;;;5038497;28;20496;-68
2023/02/26 13:13:35;;;;;;;0.10;0.10;;;;;;;;;;5052816;28;20398;-68
2023/02/26 13:16:16;;;;;;;0.20;0.20;;;;;;;;;;5035451;28;20305;-68
2023/02/26 13:18:45;;;;;;;0.10;0.10;;;;;;;;;;5050027;28;20266;-68
2023/02/26 13:21:14;;;;;;;0.10;0.10;;;;;;;;;;5041555;28;20239;-68
2023/02/26 13:23:46;;;;;;;0.10;0.10;;;;;;;;;;5050193;28;20236;-69
2023/02/26 13:26:14;;;;;;;0.10;0.10;;;;;;;;;;5041684;28;20241;-69
2023/02/26 13:28:42;;;;;;;0.10;0.10;;;;;;;;;;5049859;28;20276;-69
2023/02/26 13:31:10;;;;;;;0.10;0.10;;;;;;;;;;5040714;28;20258;-69
2023/02/26 13:33:37;;;;;;;0.10;0.10;;;;;;;;;;5050493;28;20295;-69
2023/02/26 13:36:06;;;;;;;0.10;0.10;;;;;;;;;;5040353;28;20274;-69
2023/02/26 13:38:42;;;;;;;0.10;0.10;;;;;;;;;;5051154;28;20372;-68
2023/02/26 13:41:12;;;;;;;0.10;0.10;;;;;;;;;;5041081;28;20263;-69
2023/02/26 13:43:45;;;;;;;0.10;0.10;;;;;;;;;;5050146;28;20228;-69
2023/02/26 13:46:19;;;;;;;0.10;0.10;;;;;;;;;;5041495;28;20255;-69
2023/02/26 13:48:51;;;;;;;0.10;0.10;;;;;;;;;;5048917;28;20554;-68
2023/02/26 13:51:26;;;;;;;0.10;0.10;;;;;;;;;;5042102;28;20256;-68
2023/02/26 13:53:54;;;;;;;0.10;0.10;;;;;;;;;;5048321;28;20214;-66
2023/02/26 13:56:38;;;;;;;0.10;0.10;;;;;;;;;;5042235;28;20253;-69
2023/02/26 13:59:24;;;;;;;0.10;0.10;;;;;;;;;;5045996;28;20243;-69
2023/02/26 14:01:53;;;;;;;0.10;0.10;;;;;;;;;;5045065;28;20305;-69
2023/02/26 14:04:25;;;;;;;0.10;0.10;;;;;;;;;;5045829;28;20285;-69
2023/02/26 14:06:52;;;;;;;0.10;0.10;;;;;;;;;;5045550;28;20493;-69
2023/02/26 14:09:45;;;;;;;0.10;0.10;;;;;;;;;;5045126;28;20236;-68
2023/02/26 14:12:29;;;;;;;0.10;0.10;;;;;;;;;;5051638;28;20242;-68
2023/02/26 14:15:11;;;;;;;0.10;0.10;;;;;;;;;;5035620;28;20310;-68
2023/02/26 14:17:40;;;;;;;0.10;0.10;;;;;;;;;;5033555;28;20214;-68
2023/02/26 14:20:15;;;;;;;0.10;0.10;;;;;;;;;;5046462;28;20533;-68
2023/02/26 14:22:42;;;;;;;0.10;0.10;;;;;;;;;;5034971;28;20231;-68
2023/02/26 14:25:13;;;;;;;0.10;0.10;;;;;;;;;;5046111;28;20238;-68
2023/02/26 14:27:40;;;;;;;0.10;0.10;;;;;;;;;;5034737;28;20210;-67
2023/02/26 14:30:17;;;;;;;0.10;0.10;;;;;;;;;;5046264;28;20503;-68
2023/02/26 14:32:49;;;;;;;0.10;0.10;;;;;;;;;;5034582;28;20227;-68
2023/02/26 14:35:19;;;;;;;0.10;0.10;;;;;;;;;;5036099;28;20508;-68
2023/02/26 14:37:49;;;;;;;0.10;0.10;;;;;;;;;;5060833;28;20231;-69
2023/02/26 14:40:25;;;;;;;0.10;0.10;;;;;;;;;;5035768;28;20205;-68
2023/02/26 14:42:53;;;;;;;0.10;0.10;;;;;;;;;;5059587;28;20223;-67
2023/02/26 14:45:31;;;;;;;0.10;0.10;;;;;;;;;;5035466;28;20243;-67
2023/02/26 14:48:04;;;;;;;0.10;0.10;;;;;;;;;;5058709;28;20226;-67
2023/02/26 14:50:37;;;;;;;0.10;0.10;;;;;;;;;;5038101;28;20251;-68
2023/02/26 14:53:24;;;;;;;0.10;0.10;;;;;;;;;;5057644;28;20227;-67